x

Canaveral 20 Nm East Of Cape Canaveral, Fl (41009) Weather Station

9:20am - Mon 8th Feb 2016 All times are EST. -5 hours from GMT.

  • Wind
    18mph, 25mph gusts
  • Sea Temp 72°f
  • Air Temp 56°f
  • Sea Pressure 1018.2mb
  • Canaveral 20 Nm East Of Cape Canaveral, Fl
  • Canaveral 20 Nm East Of Cape Canaveral, Fl

More Historic Weather Station data

Upgrade to MSW Pro to gain access to the past 30 days of data for over 8000 Wavebouys and Weather Stations around the globe.

Join Pro

Comparision Forecast

View Surf forecast
   
Mon 02/08 9:20am  -   -   -  18 25 mph 1018.2mb 72f 56f
8:50am 6.5ft 11s 7s 18 22 mph 1018mb 72f 56f
8:20am  -   -   -  20 25 mph 1017.7mb 72f 56f
7:50am 6ft 11s 6s 20 25 mph 1017.3mb 72f 56f
7:20am  -   -   -  20 27 mph 1017.2mb 72f 56f
6:50am 6.5ft 13s 7s 22 25 mph 1017mb 72f 56f
6:20am  -   -   -  20 27 mph 1016.8mb 72f 56f
5:50am 6.5ft 11s 6s 20 25 mph 1016.2mb 72f 55f
5:20am  -   -   -  20 25 mph 1016.3mb 71f 55f
4:50am 6.5ft 10s 6s 22 27 mph 1016.3mb 71f 55f
4:20am  -   -   -  20 27 mph 1016.4mb 71f 56f
3:50am 7ft 9s 6s 20 27 mph 1016.5mb 71f 56f
3:20am  -   -   -  22 29 mph 1016.4mb 71f 56f
2:50am 7ft 10s 6s 20 27 mph 1016.5mb 71f 56f
2:20am  -   -   -  20 27 mph 1016.7mb 71f 56f
1:50am 7ft 10s 6s 20 25 mph 1016.9mb 70f 56f
1:20am  -   -   -  22 29 mph 1017.2mb 70f 56f
12:50am 8ft 10s 6s 22 29 mph 1017.2mb 70f 56f
12:20am  -   -   -  20 27 mph 1017.4mb 69f 56f
Sun 02/07 11:50pm 8ft 10s 7s 25 31 mph 1017.6mb 69f 57f
11:20pm  -   -   -  22 29 mph 1017.7mb 70f 56f
10:50pm 9ft 11s 7s 25 27 mph 1017.5mb 71f 56f
10:20pm  -   -   -  22 29 mph 1017.5mb 71f 56f
9:50pm 8.5ft 10s 7s 22 27 mph 1017.1mb 71f 56f
9:20pm  -   -   -  22 29 mph 1016.8mb 72f 56f
8:50pm 9ft 11s 7s 20 27 mph 1016.6mb 72f 56f
8:20pm  -   -   -  20 25 mph 1016.2mb 72f 57f
7:50pm 9ft 11s 7s 22 27 mph 1015.8mb 72f 57f
7:20pm  -   -   -  25 31 mph 1015mb 72f 57f
6:50pm 9ft 11s 6s 25 31 mph 1014.8mb 72f 57f
6:20pm  -   -   -  25 31 mph 1014.2mb 72f 57f
5:50pm 8ft 11s 6s 25 31 mph 1014mb 71f 57f
5:20pm  -   -   -  27 31 mph 1013.4mb 71f 56f
4:50pm 8.5ft 11s 6s 27 34 mph 1013.7mb 71f 57f
4:20pm  -   -   -  27 34 mph 1013.4mb 71f 57f
3:50pm 9ft 12s 7s 27 31 mph 1013mb 71f 56f
3:20pm  -   -   -  27 31 mph 1013.1mb 71f 56f
2:50pm 9ft 11s 7s 25 31 mph 1013.3mb 71f 55f
2:20pm  -   -   -  25 31 mph 1013.7mb 71f 53f
1:50pm 8ft 11s 6s 25 31 mph 1013.8mb 71f 51f
1:20pm  -   -   -  27 34 mph 1013.5mb 71f 51f
12:50pm 8ft 7s 6s 29 36 mph 1014.4mb 71f 51f
12:20pm  -   -   -  27 34 mph 1014.7mb 71f 52f
11:50am 8ft 6s 6s 27 34 mph 1014.9mb 70f 53f
11:20am  -   -   -  29 34 mph 1014.9mb 70f 51f
10:50am 8ft 7s 5s 31 38 mph 1014.9mb 70f 51f
10:20am  -   -   -  31 40 mph 1014.6mb 70f 51f
9:50am 8ft 7s 6s 29 38 mph 1014.3mb 70f 52f
9:20am  -   -   -  29 38 mph 1013.6mb 70f 53f
8:50am 9ft 7s 6s 29 34 mph 1013.7mb 71f 51f
8:20am  -   -   -  31 40 mph 1013mb 71f 52f
7:50am 9ft 8s 6s 34 40 mph 1011.9mb 71f 53f
7:20am  -   -   -  31 40 mph 1011.6mb 71f 53f
6:50am 8.5ft 7s 6s 29 36 mph 1011.6mb 71f 52f
6:20am  -   -   -  31 38 mph 1011.4mb 72f 52f
5:50am 8.5ft 7s 6s 31 38 mph 1011.5mb 72f 52f
5:20am  -   -   -  31 38 mph 1011.4mb 72f 52f
4:50am 8ft 6s 6s 29 36 mph 1011.5mb 72f 52f
4:20am  -   -   -  29 36 mph 1011.4mb 72f 53f
3:50am 7.5ft 6s 6s 27 34 mph 1011.8mb 72f 54f
3:20am  -   -   -  29 36 mph 1011.4mb 73f 53f
2:50am 6.5ft 5s 5s 29 36 mph 1011.7mb 73f 56f
2:20am  -   -   -  27 34 mph 1012mb 73f 57f
1:50am 6.5ft 11s 5s 29 36 mph 1012.3mb 73f 58f
1:20am  -   -   -  25 31 mph 1012.7mb 73f 60f
12:50am 6ft 8s 6s 22 27 mph 1013.1mb 73f 60f
12:20am  -   -   -  27 34 mph 1013.6mb 74f 60f
Sat 02/06 11:50pm 6.5ft 10s 6s 20 25 mph 1013.6mb 74f 60f
11:20pm  -   -   -  25 31 mph 1014.4mb 74f 63f
10:50pm 6ft 11s 6s 4 9 mph 1015.2mb 74f 66f
10:20pm  -   -   -  2 4 mph 1015.3mb 74f 65f
9:50pm 6ft 9s 6s 4
mph
1015.6mb 74f 65f
9:20pm  -   -   -  7 9 mph 1016.4mb 74f 66f
8:50pm 6ft 10s 6s 9 11 mph 1016.3mb 74f 66f
8:20pm  -   -   -  11 16 mph 1015.8mb 74f 67f
7:50pm 6ft 11s 6s 11 16 mph 1016.8mb 74f 69f
7:20pm  -   -   -  16 20 mph 1016mb 74f 69f
6:50pm 6.5ft 8s 6s 18 22 mph 1016mb 74f 68f
6:20pm  -   -   -  18 22 mph 1016.4mb 74f 68f
5:50pm 6ft 10s 6s 20 25 mph 1016.3mb 74f 68f
5:20pm  -   -   -  18 22 mph 1017mb 74f 69f
4:50pm 6ft 9s 6s 16 18 mph 1017.4mb 74f 69f
4:20pm  -   -   -  9 13 mph 1017.8mb 74f 70f
3:50pm 5.5ft 10s 6s 9 13 mph 1018.1mb 74f 70f
3:20pm  -   -   -  9 13 mph 1018.6mb 74f 70f
2:50pm 5.5ft 9s 6s 7 9 mph 1019.1mb 74f 70f
2:20pm  -   -   -  9 13 mph 1019.1mb 74f 70f
1:50pm 5ft 10s 6s 11 13 mph 1019.5mb 74f 70f
1:20pm  -   -   -  11 16 mph 1020.1mb 74f 69f
12:50pm 5.5ft 10s 6s 9 13 mph 1020.7mb 74f 70f
12:20pm  -   -   -  11 13 mph 1021mb 74f 70f
11:50am 5.5ft 10s 6s 11 16 mph 1021.7mb 74f 70f
11:20am  -   -   -  11 16 mph 1021.8mb 74f 70f
10:50am 5.5ft 8s 6s 11 13 mph 1022.3mb 74f 70f
10:20am  -   -   -  11 16 mph 1022.1mb 74f 70f
9:50am 6ft 8s 7s 13 16 mph 1022mb 74f 70f
9:20am  -   -   -  13 18 mph 1021.8mb 74f 69f
8:50am 6ft 8s 6s 13 16 mph 1021.9mb 74f 69f
8:20am  -   -   -  13 16 mph 1021.6mb 74f 69f
7:50am 5ft 9s 6s 16 18 mph 1021.4mb 74f 69f
7:20am  -   -   -  13 16 mph 1021.8mb 74f 68f
6:50am 5ft 8s 6s 13 16 mph 1021.6mb 74f 68f
6:20am  -   -   -  13 16 mph 1021.1mb 74f 68f
5:50am 5.5ft 8s 6s 11 16 mph 1020.8mb 74f 68f
5:20am  -   -   -  11 16 mph 1020.6mb 74f 67f
4:50am 5ft 8s 5s 13 18 mph 1020.4mb 74f 67f
4:20am  -   -   -  13 18 mph 1020.6mb 74f 67f
3:50am 5ft 8s 6s 16 20 mph 1021.2mb 74f 67f
3:20am  -   -   -  16 18 mph 1021.2mb 74f 67f
2:50am 5ft 9s 6s 13 18 mph 1021.2mb 74f 67f
2:20am  -   -   -  18 20 mph 1021.2mb 74f 67f
1:50am 5ft 8s 5s 16 20 mph 1021.4mb 74f 67f
1:20am  -   -   -  16 22 mph 1022mb 74f 67f
12:50am 5ft 8s 5s 16 20 mph 1022.3mb 74f 67f
Fri 02/05 11:50pm 6ft 8s 5s 20 25 mph 1022.9mb 74f 67f
11:20pm  -   -   -  20 25 mph 1023.1mb 74f 66f
10:50pm 6ft 8s 5s 22 27 mph 1023mb 74f 66f
10:20pm  -   -   -  25 29 mph 1022.9mb 74f 66f
9:50pm 6ft 7s 5s 22 29 mph 1023.1mb 74f 65f
9:20pm  -   -   -  22 29 mph 1023mb 74f 66f
8:50pm 6ft 10s 5s 22 27 mph 1022.9mb 74f 65f
8:20pm  -   -   -  22 29 mph 1022.9mb 74f 65f
7:50pm 6ft 8s 5s 20 25 mph 1023mb 74f 65f
7:20pm  -   -   -  22 29 mph 1022.8mb 74f 65f
6:50pm 6ft 8s 5s 22 27 mph 1022.7mb 74f 65f
6:20pm  -   -   -  20 27 mph 1022.7mb 74f 64f
5:50pm 6.5ft 10s 5s 22 27 mph 1022.5mb 74f 64f
5:20pm  -   -   -  22 29 mph 1022.1mb 74f 64f
4:50pm 6ft 6s 5s 25 31 mph 1021.9mb 74f 64f
4:20pm  -   -   -  25 31 mph 1021.6mb 74f 63f
3:50pm 6.5ft 7s 5s 22 29 mph 1021.8mb 74f 63f
3:20pm  -   -   -  25 29 mph 1021.6mb 74f 62f
2:50pm 7ft 8s 6s 25 34 mph 1021.6mb 74f 62f
2:20pm  -   -   -  25 31 mph 1021.6mb 74f 61f
1:50pm 7.5ft 7s 5s 27 31 mph 1021.7mb 74f 60f
1:20pm  -   -   -  25 29 mph 1022.1mb 74f 60f
12:50pm 7.5ft 8s 6s 27 34 mph 1022.5mb 74f 59f
12:20pm  -   -   -  27 34 mph 1022.9mb 74f 59f
11:50am 8.5ft 8s 6s 27 36 mph 1023.2mb 74f 58f
11:20am  -   -   -  27 34 mph 1023.8mb 74f 58f
10:50am 10ft 8s 6s 31 36 mph 1023.4mb 74f 59f
10:20am  -   -   -  31 36 mph 1023.3mb 74f 59f
9:50am 8.5ft 8s 6s 29 34 mph 1023.5mb 74f 59f
9:20am  -   -   -  29 36 mph 1023.4mb 74f 58f
8:50am 8.5ft 7s 6s 29 36 mph 1023.2mb 74f 58f
8:20am  -   -   -  29 38 mph 1023mb 74f 57f
7:50am 8.5ft 8s 6s 29 38 mph 1022.5mb 74f 57f
7:20am  -   -   -  29 38 mph 1022mb 74f 58f
6:50am 8ft 7s 6s 31 38 mph 1021.2mb 74f 58f
6:20am  -   -   -  29 38 mph 1020.7mb 74f 59f
5:50am 8.5ft 7s 6s 31 38 mph 1019.9mb 74f 59f
5:20am  -   -   -  31 38 mph 1019.1mb 74f 59f
4:50am 7.5ft 7s 5s 31 38 mph 1019mb 74f 59f
4:20am  -   -   -  29 34 mph 1019.7mb 74f 60f
3:50am 7.5ft 7s 6s 29 36 mph 1019.1mb 74f 60f
3:20am  -   -   -  31 36 mph 1018.2mb 74f 60f
2:50am 7ft 6s 5s 27 34 mph 1018.7mb 74f 60f
2:20am  -   -   -  29 38 mph 1018.6mb 74f 61f
1:50am 6ft 6s 5s 27 38 mph 1018mb 74f 61f
1:20am  -   -   -  29 36 mph 1018.3mb 75f 60f
12:50am 4.5ft 5s 5s 27 34 mph 1018mb 75f 63f
12:20am  -   -   -  25 29 mph 1017.3mb 75f 64f
Thu 02/04 11:50pm 4.5ft 5s 4s 25 31 mph 1017.4mb 75f 64f
11:20pm  -   -   -  27 34 mph 1017.3mb 75f 65f
10:50pm 4.5ft 5s 5s 20 25 mph 1017.3mb 75f 68f
10:20pm  -   -   -  18 20 mph 1016.7mb 75f 70f
9:50pm 5ft 5s 5s 13 20 mph 1016.7mb 75f 71f
9:20pm  -   -   -  22 27 mph 1015.6mb 75f 75f
8:50pm 5.5ft 6s 5s 22 27 mph 1015.5mb 75f 75f
8:20pm  -   -   -  25 29 mph 1015.3mb 75f 75f
7:50pm 6ft 6s 5s 25 29 mph 1015.4mb 75f 75f
7:20pm  -   -   -  25 29 mph 1015mb 75f 75f
6:50pm 6ft 6s 5s 25 31 mph 1014.8mb 75f 75f
6:20pm  -   -   -  27 31 mph 1014.4mb 75f 75f
5:50pm 5.5ft 6s 5s 25 29 mph 1014.5mb 75f 75f
5:20pm  -   -   -  25 31 mph 1014.2mb 75f 75f
4:50pm 5ft 6s 4s 27 31 mph 1013.9mb 75f 75f
4:20pm  -   -   -  25 29 mph 1014.5mb 75f 75f
3:50pm 5ft 5s 4s 22 29 mph 1014.8mb 75f 76f
3:20pm  -   -   -  22 27 mph 1014.9mb 75f 75f